Time;durP1;ratioP1;P1;durP2;ratioP2;P2;SDS_P1;SDS_P2;PMS_P1;PMS_P2;Temp;Humidity;BMP_temperature;BMP_pressure;BME280_temperature;BME280_humidity;BME280_pressure;Samples;Min_cycle;Max_cycle;Signal;HPM_P1;HPM_P2
2022/06/03 00:02:00;;;;;;;2.97;1.05;;;15.20;77.30;;;;;;4978876;28;20022;-70
2022/06/03 00:04:57;;;;;;;1.30;0.93;;;15.20;77.40;;;;;;4979300;28;20029;-70
2022/06/03 00:07:31;;;;;;;4.32;1.25;;;15.20;77.40;;;;;;4981083;28;20037;-70
2022/06/03 00:10:12;;;;;;;2.47;1.02;;;15.20;77.60;;;;;;4978127;28;20125;-70
2022/06/03 00:12:53;;;;;;;7.20;1.20;;;15.20;77.60;;;;;;4982880;28;20022;-70
2022/06/03 00:15:50;;;;;;;2.80;0.95;;;15.10;78.40;;;;;;4975325;28;20014;-70
2022/06/03 00:18:20;;;;;;;2.22;1.05;;;15.10;77.80;;;;;;4974664;28;20080;-70
2022/06/03 00:21:07;;;;;;;4.63;1.83;;;15.10;77.80;;;;;;4980316;28;20037;-70
2022/06/03 00:23:39;;;;;;;7.65;1.17;;;15.10;77.90;;;;;;4978645;28;20023;-70
2022/06/03 00:26:13;;;;;;;3.97;0.95;;;15.10;77.90;;;;;;4981325;28;20026;-70
2022/06/03 00:29:02;;;;;;;5.78;1.02;;;15.10;77.90;;;;;;4977137;28;20027;-70
2022/06/03 00:31:50;;;;;;;3.08;0.80;;;15.10;78.00;;;;;;4982102;28;20021;-70
2022/06/03 00:34:28;;;;;;;2.15;1.40;;;15.10;78.10;;;;;;4975848;28;20598;-70
2022/06/03 00:37:27;;;;;;;5.65;1.08;;;15.10;78.10;;;;;;4975869;28;20129;-70
2022/06/03 00:39:54;;;;;;;2.42;1.15;;;15.10;78.20;;;;;;4992599;28;20039;-70
2022/06/03 00:42:37;;;;;;;4.70;1.23;;;15.00;78.20;;;;;;4979404;28;20580;-70
2022/06/03 00:45:25;;;;;;;4.15;1.88;;;15.00;78.30;;;;;;4976083;28;20027;-70
2022/06/03 00:48:03;;;;;;;3.53;1.30;;;15.00;78.30;;;;;;4975302;28;20072;-71
2022/06/03 00:51:19;;;;;;;10.27;2.88;;;15.00;78.40;;;;;;4974214;28;20501;-70
2022/06/03 00:54:02;;;;;;;4.75;2.67;;;15.00;78.30;;;;;;4997179;28;20026;-70
2022/06/03 00:56:53;;;;;;;2.83;2.17;;;15.00;78.40;;;;;;4996961;28;20562;-70
2022/06/03 00:59:51;;;;;;;2.75;1.92;;;15.00;78.30;;;;;;4981724;28;20039;-70
2022/06/03 01:03:04;;;;;;;5.53;1.65;;;15.00;78.40;;;;;;4976908;28;20022;-70
2022/06/03 01:06:11;;;;;;;4.03;1.67;;;15.00;78.50;;;;;;4978169;28;20100;-70
2022/06/03 01:08:37;;;;;;;;;;;14.90;78.50;;;;;;4988930;28;20049;-70
2022/06/03 01:12:06;;;;;;;5.05;1.65;;;14.90;78.60;;;;;;4975069;28;19906;-70
2022/06/03 01:15:06;;;;;;;5.47;2.10;;;14.90;78.60;;;;;;5018245;28;20025;-70
2022/06/03 01:17:39;;;;;;;10.45;4.05;;;14.90;78.80;;;;;;5018864;28;20557;-70
2022/06/03 01:20:14;;;;;;;7.47;4.50;;;14.90;78.90;;;;;;4975149;28;20058;-71
2022/06/03 01:23:02;;;;;;;16.55;4.82;;;14.90;79.00;;;;;;4978268;28;20033;-71
2022/06/03 01:25:53;;;;;;;7.68;3.97;;;14.80;79.00;;;;;;4979377;28;20106;-70
2022/06/03 01:29:00;;;;;;;8.70;3.03;;;14.80;79.10;;;;;;4972212;28;20030;-70
2022/06/03 01:31:48;;;;;;;7.85;3.35;;;14.90;79.00;;;;;;4979135;28;20385;-70
2022/06/03 01:34:27;;;;;;;5.15;2.70;;;14.90;78.90;;;;;;4978957;28;20459;-70
2022/06/03 01:37:33;;;;;;;4.85;2.13;;;14.80;78.90;;;;;;4978058;28;20035;-70
2022/06/03 01:40:27;;;;;;;8.55;2.33;;;14.80;79.20;;;;;;5027789;28;20021;-70
2022/06/03 01:43:14;;;;;;;5.95;1.40;;;14.80;79.30;;;;;;4980366;28;20038;-70
2022/06/03 01:46:28;;;;;;;4.57;1.75;;;14.80;79.20;;;;;;4979369;28;20030;-70
2022/06/03 01:48:57;;;;;;;4.05;1.50;;;14.70;79.00;;;;;;4988232;28;22010;-70
2022/06/03 01:51:48;;;;;;;6.05;2.20;;;14.70;78.80;;;;;;4984845;28;20035;-70
2022/06/03 01:54:49;;;;;;;5.65;2.83;;;14.70;78.60;;;;;;4981349;28;20022;-70
2022/06/03 01:57:40;;;;;;;5.55;2.10;;;14.70;78.50;;;;;;4982564;28;20113;-70
2022/06/03 02:00:35;;;;;;;7.82;2.80;;;14.70;78.20;;;;;;4975643;28;20022;-70
2022/06/03 02:03:30;;;;;;;9.30;3.65;;;14.60;77.70;;;;;;4978383;28;20022;-70
2022/06/03 02:06:15;;;;;;;7.70;3.60;;;14.60;77.40;;;;;;4981402;28;20030;-70
2022/06/03 02:09:12;;;;;;;6.63;3.60;;;14.60;77.00;;;;;;4982573;28;20039;-70
2022/06/03 02:12:00;;;;;;;;;;;14.50;76.60;;;;;;4974843;28;20023;-71
2022/06/03 02:14:58;;;;;;;9.70;3.95;;;14.50;76.30;;;;;;4983320;28;20323;-70
2022/06/03 02:17:36;;;;;;;6.88;4.40;;;14.50;76.00;;;;;;4979308;28;20474;-70
2022/06/03 02:20:21;;;;;;;11.00;7.68;;;14.50;75.80;;;;;;4976585;28;20034;-70
2022/06/03 02:23:06;;;;;;;11.50;8.27;;;14.50;75.90;;;;;;4977932;28;20023;-70
2022/06/03 02:26:03;;;;;;;10.03;7.50;;;14.40;75.80;;;;;;4978717;28;20550;-70
2022/06/03 02:32:13;;;;;;;7.03;5.47;;;14.40;75.70;;;;;;4983294;28;20480;-70
2022/06/03 02:35:02;;;;;;;6.72;5.40;;;14.40;75.80;;;;;;4979572;28;20072;-70
2022/06/03 02:37:41;;;;;;;8.85;4.45;;;14.30;75.70;;;;;;4977188;28;20080;-70
2022/06/03 02:40:45;;;;;;;6.28;3.95;;;14.30;75.70;;;;;;4977536;28;20022;-70
2022/06/03 02:43:39;;;;;;;6.25;3.58;;;14.30;75.80;;;;;;4980691;28;20096;-70
2022/06/03 02:46:27;;;;;;;4.95;2.90;;;14.30;75.90;;;;;;4980393;28;20010;-70
2022/06/03 02:49:17;;;;;;;5.43;3.38;;;14.30;75.90;;;;;;4978873;28;20042;-70
2022/06/03 02:52:02;;;;;;;4.65;2.30;;;14.20;75.90;;;;;;4979371;28;20019;-70
2022/06/03 02:54:34;;;;;;;3.30;1.50;;;14.20;76.20;;;;;;4980815;28;20113;-70
2022/06/03 02:57:15;;;;;;;5.47;1.65;;;14.20;76.40;;;;;;4975151;28;20015;-70
2022/06/03 02:59:59;;;;;;;4.15;1.13;;;14.20;76.30;;;;;;4978508;28;21458;-71
2022/06/03 03:02:51;;;;;;;5.03;1.70;;;14.20;76.30;;;;;;4975368;28;20026;-70
2022/06/03 03:05:54;;;;;;;5.57;1.73;;;14.20;76.30;;;;;;4980219;28;20438;-70
2022/06/03 03:08:57;;;;;;;4.45;0.80;;;14.20;76.20;;;;;;4974829;28;20034;-70
2022/06/03 03:11:42;;;;;;;2.15;0.68;;;14.10;76.10;;;;;;4978692;28;20019;-70
2022/06/03 03:14:40;;;;;;;4.00;0.70;;;14.10;76.00;;;;;;4982689;28;20087;-70
2022/06/03 03:17:43;;;;;;;2.15;1.33;;;14.10;76.00;;;;;;4979890;28;20037;-70
2022/06/03 03:20:55;;;;;;;2.13;1.00;;;14.10;75.90;;;;;;4980610;28;20584;-70
2022/06/03 03:23:58;;;;;;;4.32;0.88;;;14.10;76.00;;;;;;4980083;28;20026;-70
2022/06/03 03:27:09;;;;;;;4.90;0.80;;;14.00;76.00;;;;;;4983781;28;20100;-70
2022/06/03 03:29:48;;;;;;;2.45;1.17;;;14.00;76.00;;;;;;4995066;28;20053;-70
2022/06/03 03:32:33;;;;;;;4.10;0.98;;;14.00;76.00;;;;;;4981093;28;20061;-70
2022/06/03 03:35:04;;;;;;;3.03;1.45;;;13.90;76.10;;;;;;4977778;28;20493;-70
2022/06/03 03:37:46;;;;;;;4.57;0.90;;;13.90;76.10;;;;;;4981427;28;20038;-70
2022/06/03 03:40:44;;;;;;;5.25;1.20;;;13.90;76.20;;;;;;4974441;28;20524;-70
2022/06/03 03:43:42;;;;;;;8.98;1.35;;;14.00;76.20;;;;;;4985752;28;20203;-70
2022/06/03 03:46:27;;;;;;;4.10;1.65;;;13.90;75.90;;;;;;4979011;28;20027;-70
2022/06/03 03:49:15;;;;;;;2.28;1.02;;;13.90;76.00;;;;;;4979898;28;20038;-70
2022/06/03 03:52:03;;;;;;;2.53;2.08;;;13.90;76.10;;;;;;4974391;28;20030;-70
2022/06/03 03:54:51;;;;;;;2.95;1.30;;;13.80;76.10;;;;;;4975165;28;20077;-69
2022/06/03 03:57:17;;;;;;;4.57;1.73;;;13.80;76.10;;;;;;4979492;28;20045;-69
2022/06/03 04:00:18;;;;;;;4.90;2.17;;;13.80;76.00;;;;;;4978995;28;20490;-70
2022/06/03 04:03:14;;;;;;;4.18;2.22;;;13.80;76.00;;;;;;4979961;28;20473;-69
2022/06/03 04:06:27;;;;;;;5.50;2.15;;;13.80;75.90;;;;;;5013825;28;20046;-69
2022/06/03 04:09:25;;;;;;;23.52;16.08;;;13.70;75.70;;;;;;4978512;28;20872;-68
2022/06/03 04:12:27;;;;;;;16.92;10.30;;;13.80;75.80;;;;;;4984426;28;20689;-69
2022/06/03 04:15:47;;;;;;;7.68;4.93;;;13.80;75.60;;;;;;4986823;28;20030;-69
2022/06/03 04:18:23;;;;;;;7.88;3.38;;;13.70;77.00;;;;;;4981775;28;20026;-66
2022/06/03 04:20:53;;;;;;;6.18;2.80;;;13.70;76.90;;;;;;4969870;28;20023;-68
2022/06/03 04:24:13;;;;;;;3.65;2.53;;;13.70;76.70;;;;;;4975690;28;20035;-68
2022/06/03 04:27:22;;;;;;;6.78;2.30;;;13.70;76.50;;;;;;4982760;28;20042;-68
2022/06/03 04:30:26;;;;;;;4.13;2.00;;;13.70;76.60;;;;;;4977008;28;20944;-69
2022/06/03 04:33:24;;;;;;;10.57;7.95;;;13.70;76.10;;;;;;4977452;28;20396;-68
2022/06/03 04:37:01;;;;;;;12.35;7.93;;;13.60;75.80;;;;;;5063860;28;20418;-69
2022/06/03 04:40:01;;;;;;;7.60;4.22;;;13.70;75.40;;;;;;4947572;28;20077;-69
2022/06/03 04:42:46;;;;;;;5.40;3.47;;;13.60;75.30;;;;;;4980678;28;20427;-68
2022/06/03 04:45:12;;;;;;;3.50;2.28;;;13.60;75.30;;;;;;4977737;28;20030;-68
2022/06/03 04:47:54;;;;;;;3.22;2.03;;;13.60;75.10;;;;;;4977326;28;20382;-69
2022/06/03 04:50:49;;;;;;;6.53;2.42;;;13.60;75.20;;;;;;4978145;28;20038;-71
2022/06/03 04:53:27;;;;;;;6.45;2.35;;;13.60;75.10;;;;;;4977492;28;20031;-70
2022/06/03 04:56:20;;;;;;;4.47;3.08;;;13.50;75.00;;;;;;4977181;28;20038;-69
2022/06/03 04:59:05;;;;;;;8.32;3.33;;;13.50;74.90;;;;;;4980668;28;20054;-70
2022/06/03 05:02:01;;;;;;;4.70;2.78;;;13.50;75.10;;;;;;4973702;28;20030;-69
2022/06/03 05:04:43;;;;;;;7.25;3.97;;;13.50;75.10;;;;;;4976777;28;20022;-70
2022/06/03 05:07:27;;;;;;;6.40;3.45;;;13.40;74.90;;;;;;4978233;28;20090;-70
2022/06/03 05:10:30;;;;;;;6.60;3.38;;;13.40;74.80;;;;;;4979552;28;20050;-70
2022/06/03 05:13:09;;;;;;;6.15;2.38;;;13.40;74.90;;;;;;4981380;28;20105;-69
2022/06/03 05:15:39;;;;;;;4.15;2.35;;;13.40;74.70;;;;;;4979392;28;20539;-70
2022/06/03 05:18:36;;;;;;;4.00;1.83;;;13.40;74.40;;;;;;4978813;28;20042;-69
2022/06/03 05:21:12;;;;;;;5.35;2.00;;;13.40;74.50;;;;;;4983620;28;20026;-70
2022/06/03 05:24:21;;;;;;;5.43;1.60;;;13.40;74.60;;;;;;4981565;28;20590;-69
2022/06/03 05:27:18;;;;;;;3.83;1.80;;;13.40;74.50;;;;;;4980525;28;20048;-70
2022/06/03 05:30:18;;;;;;;5.10;2.22;;;13.30;74.30;;;;;;4979276;28;20034;-70
2022/06/03 05:33:12;;;;;;;5.10;1.85;;;13.30;74.40;;;;;;4981525;28;20018;-69
2022/06/03 05:35:50;;;;;;;3.35;1.40;;;13.30;74.50;;;;;;4982815;28;20011;-70
2022/06/03 05:38:31;;;;;;;5.25;2.10;;;13.30;74.60;;;;;;4981635;28;20046;-70
2022/06/03 05:44:10;;;;;;;2.50;1.63;;;13.30;74.70;;;;;;4980814;28;20389;-70
2022/06/03 05:47:11;;;;;;;3.08;1.67;;;13.20;74.70;;;;;;4979826;28;20049;-70
2022/06/03 05:49:55;;;;;;;8.35;2.05;;;13.20;74.70;;;;;;4982147;28;20087;-69
2022/06/03 05:52:46;;;;;;;6.97;2.20;;;13.20;74.90;;;;;;4977152;28;20072;-68
2022/06/03 05:55:41;;;;;;;3.70;1.65;;;13.20;75.40;;;;;;4978967;28;20101;-69
2022/06/03 05:58:36;;;;;;;2.80;2.00;;;13.20;75.60;;;;;;4978040;28;20073;-69
2022/06/03 06:01:21;;;;;;;3.00;1.70;;;13.20;75.70;;;;;;5002843;28;20057;-69
2022/06/03 06:04:00;;;;;;;9.45;3.50;;;13.20;75.90;;;;;;4980856;28;21101;-70
2022/06/03 06:06:32;;;;;;;4.75;3.45;;;13.20;76.10;;;;;;4983330;28;20022;-70
2022/06/03 06:09:21;;;;;;;14.02;4.40;;;13.20;76.20;;;;;;4980878;28;20027;-69
2022/06/03 06:12:13;;;;;;;7.60;3.42;;;13.20;76.10;;;;;;4983432;28;20034;-70
2022/06/03 06:14:56;;;;;;;11.18;3.63;;;13.20;75.90;;;;;;4980179;28;20551;-69
2022/06/03 06:17:36;;;;;;;6.80;3.20;;;13.20;76.40;;;;;;4981921;28;20061;-70
2022/06/03 06:20:32;;;;;;;11.70;3.40;;;13.20;76.10;;;;;;4980221;28;20022;-70
2022/06/03 06:23:07;;;;;;;3.65;2.58;;;13.20;76.10;;;;;;4979943;28;20034;-70
2022/06/03 06:25:39;;;;;;;5.72;2.95;;;13.20;76.90;;;;;;4980171;28;20497;-70
2022/06/03 06:28:24;;;;;;;5.90;3.10;;;13.20;77.00;;;;;;4980449;28;20026;-70
2022/06/03 06:31:27;;;;;;;3.00;2.30;;;13.20;76.60;;;;;;4977588;28;20057;-69
2022/06/03 06:34:04;;;;;;;4.22;2.63;;;13.20;76.50;;;;;;4987049;28;20042;-69
2022/06/03 06:36:52;;;;;;;5.78;2.95;;;13.20;76.60;;;;;;4977434;28;20038;-69
2022/06/03 06:39:48;;;;;;;5.90;3.55;;;13.10;76.80;;;;;;4980139;28;20132;-69
2022/06/03 06:42:17;;;;;;;;;;;13.10;77.00;;;;;;4976989;28;20025;-70
2022/06/03 06:45:13;;;;;;;11.60;4.50;;;13.10;77.30;;;;;;4980663;28;19980;-68
2022/06/03 06:47:51;;;;;;;5.20;3.03;;;13.20;77.90;;;;;;4982070;28;20022;-69
2022/06/03 06:50:34;;;;;;;8.48;2.42;;;13.20;78.70;;;;;;4981413;28;20034;-70
2022/06/03 06:53:07;;;;;;;9.85;2.72;;;13.20;79.30;;;;;;4983310;28;20018;-69
2022/06/03 06:56:01;;;;;;;4.10;2.60;;;13.20;79.40;;;;;;4980934;28;20554;-69
2022/06/03 06:58:27;;;;;;;15.05;2.25;;;13.30;80.00;;;;;;4982172;28;20030;-69
2022/06/03 07:00:56;;;;;;;7.57;2.42;;;13.30;80.30;;;;;;4981121;28;20052;-69
2022/06/03 07:03:41;;;;;;;10.00;3.97;;;13.30;80.50;;;;;;4980616;28;20473;-70
2022/06/03 07:06:37;;;;;;;9.60;3.03;;;13.30;80.80;;;;;;4981079;28;20713;-69
2022/06/03 07:09:28;;;;;;;9.95;3.38;;;13.40;81.30;;;;;;4978011;28;20049;-69
2022/06/03 07:12:00;;;;;;;11.55;4.25;;;13.40;81.50;;;;;;4978606;28;20061;-70
2022/06/03 07:14:31;;;;;;;7.47;4.22;;;13.50;81.70;;;;;;4978976;28;20469;-69
2022/06/03 07:20:35;;;;;;;10.07;3.70;;;13.50;82.10;;;;;;4978356;28;20045;-70
2022/06/03 07:23:19;;;;;;;15.00;4.80;;;13.60;82.00;;;;;;5006317;28;20061;-70
2022/06/03 07:25:52;;;;;;;9.75;4.32;;;13.60;82.20;;;;;;4976047;28;20027;-70
2022/06/03 07:28:30;;;;;;;24.70;5.65;;;13.70;82.30;;;;;;4977194;28;20493;-70
2022/06/03 07:31:15;;;;;;;10.00;4.57;;;13.60;82.20;;;;;;4977535;28;20034;-70
2022/06/03 07:33:57;;;;;;;8.80;5.77;;;13.70;82.10;;;;;;4978705;28;20027;-70
2022/06/03 07:36:56;;;;;;;17.85;6.32;;;13.70;82.00;;;;;;4978894;28;20015;-70
2022/06/03 07:39:33;;;;;;;15.00;6.50;;;13.80;82.00;;;;;;4988258;28;20064;-70
2022/06/03 07:42:08;;;;;;;19.77;5.88;;;13.80;81.90;;;;;;4972850;28;20539;-70
2022/06/03 07:44:48;;;;;;;10.82;5.30;;;13.90;81.90;;;;;;4977957;28;20578;-70
2022/06/03 07:47:15;;;;;;;11.88;7.03;;;13.90;82.00;;;;;;4977409;28;20410;-70
2022/06/03 07:49:45;;;;;;;13.98;4.97;;;13.90;82.10;;;;;;4976862;28;20039;-70
2022/06/03 07:52:25;;;;;;;11.05;5.45;;;13.90;82.20;;;;;;4978225;28;20084;-70
2022/06/03 07:54:57;;;;;;;19.65;6.38;;;14.00;82.30;;;;;;4977551;28;20042;-70
2022/06/03 07:57:28;;;;;;;23.20;8.52;;;14.00;82.20;;;;;;4978196;28;20015;-71
2022/06/03 08:00:01;;;;;;;18.50;8.80;;;14.00;82.30;;;;;;4973844;28;20412;-70
2022/06/03 08:02:28;;;;;;;14.07;8.38;;;14.10;82.30;;;;;;4978753;28;20052;-71
2022/06/03 08:05:04;;;;;;;13.88;8.90;;;14.10;82.30;;;;;;4982066;28;20406;-69
2022/06/03 08:13:09;;;;;;;15.45;7.22;;;14.20;82.40;;;;;;4977642;28;20079;-71
2022/06/03 08:15:49;;;;;;;13.00;6.00;;;14.30;82.40;;;;;;4978589;28;20014;-72
2022/06/03 08:18:18;;;;;;;13.35;5.68;;;14.30;82.60;;;;;;4978128;28;20023;-70
2022/06/03 08:21:08;;;;;;;11.20;5.68;;;14.40;82.60;;;;;;4977928;28;20116;-70
2022/06/03 08:23:35;;;;;;;9.48;5.50;;;14.40;82.60;;;;;;4976604;28;20023;-70
2022/06/03 08:26:10;;;;;;;18.27;6.30;;;14.40;82.60;;;;;;4979050;28;20085;-70
2022/06/03 08:28:39;;;;;;;9.52;6.13;;;14.50;82.70;;;;;;4973399;28;20027;-70
2022/06/03 08:31:07;;;;;;;24.13;8.13;;;14.50;82.70;;;;;;4977211;28;20019;-70
2022/06/03 08:33:54;;;;;;;12.93;6.63;;;14.60;82.70;;;;;;4976417;28;20417;-70
2022/06/03 08:36:27;;;;;;;11.95;6.22;;;14.60;82.70;;;;;;4976515;28;20026;-70
2022/06/03 08:38:57;;;;;;;16.10;6.75;;;14.70;82.70;;;;;;4978671;28;20083;-70
2022/06/03 08:41:29;;;;;;;14.75;7.95;;;14.70;82.60;;;;;;4980157;28;20917;-70
2022/06/03 08:44:24;;;;;;;13.75;6.47;;;14.80;82.60;;;;;;4975834;28;20023;-70
2022/06/03 08:46:58;;;;;;;22.23;6.40;;;14.80;82.60;;;;;;4979755;28;20064;-70
2022/06/03 08:49:42;;;;;;;15.23;7.23;;;14.80;82.60;;;;;;4983703;28;20034;-69
2022/06/03 08:52:11;;;;;;;19.38;6.63;;;14.90;82.90;;;;;;4982114;28;20041;-71
2022/06/03 08:54:40;;;;;;;16.42;6.07;;;14.90;83.00;;;;;;4979069;28;20415;-70
2022/06/03 08:57:13;;;;;;;15.82;5.75;;;15.00;82.80;;;;;;4981997;28;20401;-70
2022/06/03 08:59:57;;;;;;;12.38;6.18;;;15.00;82.70;;;;;;4980719;28;20100;-69
2022/06/03 09:02:40;;;;;;;6.75;4.72;;;15.10;82.60;;;;;;4982275;28;20088;-70
2022/06/03 09:05:17;;;;;;;10.00;4.63;;;15.10;82.40;;;;;;4981662;28;20018;-70
2022/06/03 09:07:50;;;;;;;10.65;4.47;;;15.20;82.20;;;;;;4979282;28;20545;-69
2022/06/03 09:10:28;;;;;;;10.98;5.05;;;15.20;82.10;;;;;;4984770;28;20113;-70
2022/06/03 09:13:13;;;;;;;11.10;4.45;;;15.30;81.80;;;;;;4979264;28;20125;-70
2022/06/03 09:15:45;;;;;;;7.47;4.90;;;15.30;81.40;;;;;;4979295;28;20072;-70
2022/06/03 09:18:34;;;;;;;6.70;3.70;;;15.40;80.80;;;;;;4977816;28;20033;-70
2022/06/03 09:21:10;;;;;;;6.10;4.03;;;15.40;80.00;;;;;;4978614;28;20478;-70
2022/06/03 09:23:42;;;;;;;9.82;5.05;;;15.50;79.20;;;;;;4984719;28;20046;-70
2022/06/03 09:26:18;;;;;;;13.65;5.85;;;15.50;79.00;;;;;;4979792;28;20478;-70
2022/06/03 09:28:45;;;;;;;5.20;4.32;;;15.60;78.10;;;;;;4980698;28;20643;-70
2022/06/03 09:31:13;;;;;;;5.80;3.60;;;15.70;78.00;;;;;;4980383;28;20113;-70
2022/06/03 09:33:42;;;;;;;13.23;3.53;;;15.70;77.10;;;;;;4977115;28;20080;-70
2022/06/03 09:36:15;;;;;;;10.15;3.75;;;15.80;75.50;;;;;;4981752;28;20496;-70
2022/06/03 09:39:05;;;;;;;9.18;3.47;;;15.80;74.20;;;;;;4983014;28;20788;-70
2022/06/03 09:41:41;;;;;;;12.20;4.57;;;15.90;73.50;;;;;;4980845;28;20080;-70
2022/06/03 09:44:11;;;;;;;20.23;4.28;;;15.90;72.70;;;;;;4981806;28;20015;-71
2022/06/03 09:46:40;;;;;;;5.80;4.25;;;16.00;72.60;;;;;;4982784;28;20764;-70
2022/06/03 09:49:08;;;;;;;11.98;3.88;;;16.10;72.60;;;;;;4980052;28;20428;-71
2022/06/03 09:54:34;;;;;;;5.82;2.78;;;16.20;70.90;;;;;;4978629;28;20118;-71
2022/06/03 09:57:15;;;;;;;4.50;2.42;;;16.30;71.00;;;;;;4979756;28;20030;-70
2022/06/03 09:59:54;;;;;;;3.78;2.78;;;16.40;69.30;;;;;;4978640;28;20033;-70
2022/06/03 10:02:21;;;;;;;7.63;2.47;;;16.50;68.90;;;;;;4984237;28;20042;-72
2022/06/03 10:04:47;;;;;;;3.65;2.55;;;16.50;68.40;;;;;;4978667;28;20545;-71
2022/06/03 10:07:13;;;;;;;6.30;2.75;;;16.60;68.50;;;;;;4982441;28;20029;-71
2022/06/03 10:12:50;;;;;;;5.82;2.25;;;16.70;67.20;;;;;;4976441;28;20041;-71
2022/06/03 10:15:42;;;;;;;7.03;1.70;;;16.80;66.20;;;;;;4977976;28;20607;-71
2022/06/03 10:18:44;;;;;;;2.72;1.45;;;16.80;63.90;;;;;;4980578;28;20015;-71
2022/06/03 10:21:10;;;;;;;4.20;1.90;;;16.90;63.10;;;;;;4982844;28;20034;-71
2022/06/03 10:23:53;;;;;;;3.45;1.85;;;17.00;63.50;;;;;;4981165;28;20022;-71
2022/06/03 10:26:34;;;;;;;4.60;1.60;;;17.10;63.70;;;;;;4974749;28;20019;-72
2022/06/03 10:29:16;;;;;;;3.67;1.50;;;17.20;63.30;;;;;;4978671;28;20113;-72
2022/06/03 10:31:51;;;;;;;3.97;1.55;;;17.20;63.50;;;;;;4982758;28;20373;-71
2022/06/03 10:34:23;;;;;;;7.80;1.70;;;17.30;63.40;;;;;;4981331;28;20030;-72
2022/06/03 10:36:54;;;;;;;6.43;2.50;;;17.40;63.30;;;;;;4982408;28;20159;-71
2022/06/03 10:39:23;;;;;;;4.80;2.03;;;17.50;62.60;;;;;;4979438;28;20018;-71
2022/06/03 10:41:55;;;;;;;8.73;2.78;;;17.50;62.10;;;;;;4977690;28;20419;-71
2022/06/03 10:44:29;;;;;;;6.65;3.63;;;17.60;61.60;;;;;;4978334;28;20490;-72
2022/06/03 10:47:28;;;;;;;7.20;5.32;;;17.70;60.90;;;;;;4980611;28;20034;-71
2022/06/03 10:49:57;;;;;;;13.95;5.43;;;17.80;60.90;;;;;;5006530;28;20050;-71
2022/06/03 11:01:08;;;;;;;10.00;3.83;;;18.10;60.50;;;;;;4978825;28;20083;-71
2022/06/03 11:03:39;;;;;;;9.48;3.58;;;18.10;60.60;;;;;;4975854;28;20069;-72
2022/06/03 11:06:12;;;;;;;10.18;3.33;;;18.20;60.80;;;;;;4978345;28;20014;-72
2022/06/03 11:08:52;;;;;;;6.63;3.30;;;18.30;60.50;;;;;;4980364;28;20776;-72
2022/06/03 11:11:47;;;;;;;9.88;3.00;;;18.30;60.10;;;;;;4983314;28;20015;-71
2022/06/03 11:14:27;;;;;;;8.68;3.45;;;18.40;59.50;;;;;;4976719;28;20080;-72
2022/06/03 11:16:59;;;;;;;11.18;2.88;;;18.50;59.40;;;;;;4980293;28;20299;-71
2022/06/03 11:19:29;;;;;;;7.25;3.25;;;18.50;59.90;;;;;;4981271;28;20500;-71
2022/06/03 11:22:29;;;;;;;6.60;3.40;;;18.60;60.00;;;;;;4977253;28;20022;-71
2022/06/03 11:24:58;;;;;;;8.40;3.45;;;18.70;60.00;;;;;;4982491;28;20129;-71
2022/06/03 11:27:44;;;;;;;7.68;3.03;;;18.80;60.20;;;;;;4980825;28;20019;-72
2022/06/03 11:30:21;;;;;;;12.88;3.63;;;18.80;60.20;;;;;;4979275;28;20551;-72
2022/06/03 11:32:51;;;;;;;10.40;3.08;;;18.90;59.90;;;;;;4976727;28;20034;-72
2022/06/03 11:35:28;;;;;;;10.10;2.90;;;19.00;60.00;;;;;;4977972;28;20023;-72
2022/06/03 11:37:59;;;;;;;8.07;3.00;;;19.00;59.70;;;;;;4981731;28;20129;-72
2022/06/03 11:40:32;;;;;;;6.05;3.65;;;19.10;59.90;;;;;;4975955;28;20026;-72
2022/06/03 11:43:19;;;;;;;5.88;3.03;;;19.10;59.40;;;;;;4979580;28;20102;-72
2022/06/03 11:45:51;;;;;;;8.63;3.10;;;19.20;58.50;;;;;;4975952;28;20045;-73
2022/06/03 11:48:31;;;;;;;6.80;2.85;;;19.20;58.30;;;;;;4979914;28;20073;-71
2022/06/03 11:50:59;;;;;;;7.78;2.45;;;19.30;58.10;;;;;;4980160;28;20046;-72
2022/06/03 11:53:29;;;;;;;6.38;2.83;;;19.30;57.90;;;;;;4982542;28;20485;-72
2022/06/03 11:56:01;;;;;;;8.98;3.70;;;19.30;57.60;;;;;;4975742;28;20046;-71
2022/06/03 11:58:55;;;;;;;8.77;2.75;;;19.40;57.60;;;;;;4979519;28;20031;-71
2022/06/03 12:01:40;;;;;;;8.98;3.22;;;19.40;57.30;;;;;;4977046;28;20030;-72
2022/06/03 12:04:19;;;;;;;6.18;3.05;;;19.40;56.90;;;;;;4978837;28;20119;-72
2022/06/03 12:07:12;;;;;;;6.50;2.25;;;19.40;56.80;;;;;;4977329;28;20508;-72
2022/06/03 12:09:56;;;;;;;6.68;2.25;;;19.50;57.40;;;;;;5035716;28;20039;-71
2022/06/03 12:15:31;;;;;;;5.15;2.20;;;19.50;56.70;;;;;;4976348;28;20115;-72
2022/06/03 12:17:58;;;;;;;6.50;2.20;;;19.50;57.00;;;;;;4980118;28;20020;-71
2022/06/03 12:20:31;;;;;;;6.65;2.42;;;19.50;57.30;;;;;;4978028;28;20050;-72
2022/06/03 12:23:18;;;;;;;13.55;2.75;;;19.50;57.20;;;;;;4975404;28;20443;-72
2022/06/03 12:26:06;;;;;;;12.65;3.35;;;19.50;57.00;;;;;;4979567;28;20015;-72
2022/06/03 12:28:42;;;;;;;6.68;2.83;;;19.50;57.10;;;;;;4979697;28;20026;-71
2022/06/03 12:31:20;;;;;;;5.55;2.13;;;19.60;57.20;;;;;;4975733;28;20037;-72
2022/06/03 12:34:05;;;;;;;5.53;1.95;;;19.60;56.70;;;;;;4980227;28;20015;-72
2022/06/03 12:36:53;;;;;;;3.83;1.98;;;19.60;56.40;;;;;;4978351;28;20046;-71
2022/06/03 12:39:23;;;;;;;8.50;2.50;;;19.60;56.30;;;;;;4972349;28;20018;-72
2022/06/03 12:41:50;;;;;;;8.20;2.53;;;19.60;56.30;;;;;;4977361;28;20023;-71
2022/06/03 12:44:41;;;;;;;9.15;2.15;;;19.60;55.80;;;;;;4978394;28;20500;-72
2022/06/03 12:47:29;;;;;;;5.03;1.90;;;19.60;56.10;;;;;;4978260;28;20466;-71
2022/06/03 12:50:06;;;;;;;6.40;2.65;;;19.60;56.20;;;;;;4975316;28;20034;-72
2022/06/03 12:52:35;;;;;;;6.13;1.85;;;19.70;56.40;;;;;;4974147;28;20067;-73
2022/06/03 12:55:28;;;;;;;8.48;1.88;;;19.70;56.10;;;;;;4980607;28;20022;-72
2022/06/03 12:57:56;;;;;;;8.25;2.83;;;19.70;56.50;;;;;;4976023;28;20815;-71
2022/06/03 13:00:36;;;;;;;6.25;1.77;;;19.70;56.30;;;;;;4976938;28;20435;-72
2022/06/03 13:03:06;;;;;;;6.63;2.63;;;19.70;55.90;;;;;;4978280;28;20014;-71
2022/06/03 13:05:46;;;;;;;5.40;1.90;;;19.80;56.00;;;;;;4979865;28;20328;-71
2022/06/03 13:09:34;;;;;;;10.18;2.80;;;19.80;56.10;;;;;;4973860;28;20031;-71
2022/06/03 13:11:23;;;;;;;4.80;2.22;;;19.80;55.50;;;;;;4975178;28;20141;-72
2022/06/03 13:14:15;;;;;;;6.97;2.38;;;19.80;55.10;;;;;;4979603;28;20046;-72
2022/06/03 13:16:47;;;;;;;11.07;2.92;;;19.80;54.40;;;;;;4979187;28;20011;-72
2022/06/03 13:19:21;;;;;;;6.15;2.38;;;19.80;53.90;;;;;;4978881;28;20383;-72
2022/06/03 13:22:00;;;;;;;5.70;2.92;;;19.80;52.40;;;;;;4974973;28;20027;-71
2022/06/03 13:24:34;;;;;;;1.77;1.50;;;19.90;52.40;;;;;;4978664;28;20496;-72
2022/06/03 13:27:33;;;;;;;3.65;1.30;;;19.90;51.30;;;;;;4978078;28;20407;-72
2022/06/03 13:30:15;;;;;;;3.25;1.67;;;19.90;50.50;;;;;;5023006;28;20432;-72
2022/06/03 13:32:57;;;;;;;10.38;1.90;;;19.90;50.30;;;;;;4975086;28;20022;-72
2022/06/03 13:35:32;;;;;;;7.30;1.65;;;19.90;50.30;;;;;;4983401;28;20511;-72
2022/06/03 13:38:22;;;;;;;;;;;19.90;49.90;;;;;;4984944;28;20446;-71
2022/06/03 13:43:33;;;;;;;3.90;1.70;;;19.90;49.20;;;;;;4981908;28;20436;-71
2022/06/03 13:46:09;;;;;;;4.10;1.55;;;20.00;49.30;;;;;;4979368;28;20022;-71
2022/06/03 13:48:57;;;;;;;8.65;2.00;;;20.00;49.20;;;;;;4978920;28;20034;-71
2022/06/03 13:51:36;;;;;;;7.72;1.50;;;20.00;48.90;;;;;;4983953;28;20029;-72
2022/06/03 13:54:19;;;;;;;5.07;1.40;;;20.00;48.30;;;;;;4980958;28;20022;-72
2022/06/03 13:57:15;;;;;;;9.18;1.95;;;20.00;47.90;;;;;;4982778;28;20488;-71
2022/06/03 13:59:43;;;;;;;9.07;2.30;;;20.00;47.90;;;;;;4982160;28;20499;-72
2022/06/03 14:02:39;;;;;;;6.90;2.08;;;19.90;47.40;;;;;;4978097;28;20534;-72
2022/06/03 14:05:09;;;;;;;6.28;1.42;;;19.90;47.50;;;;;;4979690;28;20466;-72
2022/06/03 14:07:45;;;;;;;3.75;1.75;;;19.90;47.70;;;;;;4983941;28;20513;-71
2022/06/03 14:10:21;;;;;;;4.90;1.85;;;19.90;47.60;;;;;;4982898;28;20042;-71
2022/06/03 14:13:10;;;;;;;4.25;1.25;;;19.90;47.30;;;;;;4976880;28;20029;-71
2022/06/03 14:15:40;;;;;;;4.35;1.30;;;19.90;47.20;;;;;;4978879;28;20017;-72
2022/06/03 14:18:07;;;;;;;10.30;1.70;;;19.90;45.70;;;;;;5052977;28;20406;-72
2022/06/03 14:20:52;;;;;;;4.85;1.38;;;19.80;44.60;;;;;;4979057;28;20057;-73
2022/06/03 14:23:39;;;;;;;5.38;1.60;;;19.80;44.00;;;;;;4977088;28;20037;-72
2022/06/03 14:26:14;;;;;;;23.38;13.32;;;19.70;43.90;;;;;;4978561;28;20018;-71
2022/06/03 14:28:54;;;;;;;13.10;7.45;;;19.70;45.30;;;;;;4981965;28;20083;-70
2022/06/03 14:31:42;;;;;;;22.30;16.15;;;19.70;46.80;;;;;;4974655;28;20063;-73
2022/06/03 14:34:18;;;;;;;16.90;8.50;;;19.60;47.70;;;;;;4979834;28;20106;-73
2022/06/03 14:36:47;;;;;;;21.83;6.00;;;19.60;48.70;;;;;;4977183;28;20100;-71
2022/06/03 14:39:27;;;;;;;8.07;4.25;;;19.60;49.70;;;;;;4979256;28;20068;-72
2022/06/03 14:41:56;;;;;;;10.00;3.88;;;19.50;50.10;;;;;;4977878;28;20075;-74
2022/06/03 14:44:27;;;;;;;12.70;10.45;;;19.40;50.60;;;;;;4982491;28;20385;-72